createdAt,value
2023-12-28T00:01:55.174Z,45.72
2023-12-28T00:03:57.039Z,50.50
2023-12-28T00:05:58.768Z,52.72
2023-12-28T00:08:00.726Z,66.65
2023-12-28T00:10:03.591Z,48.17
2023-12-28T00:12:06.247Z,44.58
2023-12-28T00:14:08.083Z,45.58
2023-12-28T00:16:09.656Z,67.38
2023-12-28T00:18:11.457Z,45.30
2023-12-28T00:20:13.450Z,50.35
2023-12-28T00:22:15.045Z,48.83
2023-12-28T00:24:17.081Z,62.97
2023-12-28T00:26:37.083Z,40.22
2023-12-28T00:28:56.974Z,56.50
2023-12-28T00:30:58.572Z,43.35
2023-12-28T00:33:00.329Z,56.42
2023-12-28T00:35:20.912Z,54.28
2023-12-28T00:37:22.455Z,44.15
2023-12-28T00:39:24.073Z,47.20
2023-12-28T00:41:25.748Z,53.22
2023-12-28T00:43:27.261Z,69.07
2023-12-28T00:45:28.925Z,44.85
2023-12-28T00:47:30.597Z,41.78
2023-12-28T00:49:32.288Z,68.70
2023-12-28T00:51:33.961Z,66.18
2023-12-28T00:53:35.561Z,63.47
2023-12-28T00:55:37.166Z,53.55
2023-12-28T00:57:38.817Z,46.80
2023-12-28T00:59:40.315Z,64.80
2023-12-28T01:01:41.935Z,62.55
2023-12-28T01:03:43.645Z,43.60
2023-12-28T01:06:05.433Z,46.50
2023-12-28T01:08:25.702Z,50.30
2023-12-28T01:10:45.773Z,39.72
2023-12-28T01:12:47.571Z,63.85
2023-12-28T01:15:09.246Z,53.58
2023-12-28T01:17:10.887Z,62.17
2023-12-28T01:19:13.079Z,61.88
2023-12-28T01:21:16.761Z,75.22
2023-12-28T01:23:28.085Z,57.95
2023-12-28T01:25:43.667Z,68.53
2023-12-28T01:28:01.687Z,59.80
2023-12-28T01:30:30.625Z,45.45
2023-12-28T01:32:49.854Z,49.70
2023-12-28T01:35:04.939Z,48.08
2023-12-28T01:37:16.365Z,44.95
2023-12-28T01:39:30.590Z,43.22
2023-12-28T01:41:44.716Z,52.97
2023-12-28T01:44:00.605Z,54.58
2023-12-28T01:46:10.833Z,40.97
2023-12-28T01:48:25.982Z,57.38
2023-12-28T01:50:46.205Z,54.65
2023-12-28T01:53:01.782Z,64.80
2023-12-28T01:57:27.912Z,52.17
2023-12-28T01:59:42.084Z,52.88
2023-12-28T02:01:59.304Z,60.00
2023-12-28T02:04:27.572Z,58.60
2023-12-28T02:06:29.492Z,61.22
2023-12-28T02:08:31.091Z,47.38
2023-12-28T02:10:32.757Z,60.67
2023-12-28T02:12:34.696Z,49.75
2023-12-28T02:14:36.618Z,59.67
2023-12-28T02:16:40.372Z,71.78
2023-12-28T02:18:48.304Z,70.03
2023-12-28T02:20:50.936Z,63.33
2023-12-28T02:23:11.296Z,58.55
2023-12-28T02:25:15.715Z,68.85
2023-12-28T02:27:17.307Z,66.80
2023-12-28T02:29:19.687Z,52.95
2023-12-28T02:31:46.117Z,60.08
2023-12-28T02:33:52.021Z,66.25
2023-12-28T02:35:56.607Z,56.20
2023-12-28T02:38:00.740Z,45.63
2023-12-28T02:40:03.415Z,56.28
2023-12-28T02:42:05.239Z,61.33
2023-12-28T02:44:25.717Z,73.65
2023-12-28T02:46:46.098Z,67.50
2023-12-28T02:49:06.582Z,73.70
2023-12-28T02:51:08.313Z,60.45
2023-12-28T02:53:10.227Z,52.95
2023-12-28T02:55:11.832Z,68.25
2023-12-28T02:57:13.408Z,69.15
2023-12-28T02:59:33.667Z,61.78
2023-12-28T03:01:35.560Z,50.95
2023-12-28T03:03:37.329Z,58.42
2023-12-28T03:05:39.130Z,60.60
2023-12-28T03:07:41.571Z,57.38
2023-12-28T03:09:43.215Z,65.10
2023-12-28T03:12:03.357Z,59.85
2023-12-28T03:14:04.981Z,55.88
2023-12-28T03:16:06.836Z,61.63
2023-12-28T03:18:08.956Z,50.80
2023-12-28T03:20:11.487Z,61.83
2023-12-28T03:22:13.409Z,56.75
2023-12-28T03:24:15.216Z,62.35
2023-12-28T03:26:16.779Z,66.63
2023-12-28T03:28:36.737Z,55.55
2023-12-28T03:30:38.279Z,57.63
2023-12-28T03:32:40.699Z,53.47
2023-12-28T03:34:42.406Z,43.88
2023-12-28T03:36:44.068Z,45.70
2023-12-28T03:38:45.663Z,52.85
2023-12-28T03:40:49.164Z,49.17
2023-12-28T03:43:09.400Z,48.55
2023-12-28T03:45:11.303Z,55.67
2023-12-28T03:47:12.938Z,48.30
2023-12-28T03:49:16.412Z,60.15
2023-12-28T03:51:18.109Z,49.65
2023-12-28T03:53:19.820Z,45.58
2023-12-28T03:55:21.398Z,62.22
2023-12-28T03:57:23.211Z,51.33
2023-12-28T03:59:24.846Z,46.90
2023-12-28T04:01:26.580Z,47.55
2023-12-28T04:03:47.081Z,49.25
2023-12-28T04:05:48.788Z,58.33
2023-12-28T04:08:08.988Z,42.42
2023-12-28T04:10:31.333Z,39.92
2023-12-28T04:12:32.915Z,46.55
2023-12-28T04:14:34.752Z,59.30
2023-12-28T04:16:36.280Z,38.17
2023-12-28T04:18:37.893Z,56.72
2023-12-28T04:20:39.528Z,39.50
2023-12-28T04:22:41.015Z,48.72
2023-12-28T04:24:50.797Z,44.13
2023-12-28T04:27:13.109Z,49.60
2023-12-28T04:29:44.861Z,40.95
2023-12-28T04:32:17.227Z,45.55
2023-12-28T04:34:35.566Z,40.38
2023-12-28T04:37:07.945Z,40.05
2023-12-28T04:39:18.101Z,41.35
2023-12-28T04:41:27.740Z,49.22
2023-12-28T04:43:40.308Z,53.85
2023-12-28T04:46:13.715Z,45.80
2023-12-28T04:48:30.527Z,53.17
2023-12-28T04:50:43.563Z,58.05
2023-12-28T04:53:01.171Z,48.65
2023-12-28T04:55:14.177Z,41.53
2023-12-28T04:57:30.411Z,57.80
2023-12-28T04:59:55.847Z,62.67
2023-12-28T05:02:06.967Z,56.55
2023-12-28T05:04:31.981Z,53.92
2023-12-28T05:07:02.193Z,52.60
2023-12-28T05:09:11.738Z,59.78
2023-12-28T05:11:15.980Z,54.97
2023-12-28T05:13:35.952Z,57.00
2023-12-28T05:15:56.267Z,52.40
2023-12-28T05:17:58.380Z,54.22
2023-12-28T05:20:00.665Z,47.05
2023-12-28T05:22:05.131Z,48.03
2023-12-28T05:24:25.247Z,46.17
2023-12-28T05:26:27.554Z,51.75
2023-12-28T05:28:29.086Z,50.10
2023-12-28T05:30:30.782Z,51.75
2023-12-28T05:32:32.493Z,57.28
2023-12-28T05:34:34.194Z,62.70
2023-12-28T05:36:35.987Z,68.85
2023-12-28T05:38:37.561Z,63.38
2023-12-28T05:40:39.042Z,61.15
2023-12-28T05:42:40.602Z,58.80
2023-12-28T05:45:00.561Z,72.35
2023-12-28T05:47:02.201Z,49.75
2023-12-28T05:49:22.626Z,48.67
2023-12-28T05:51:24.227Z,58.50
2023-12-28T05:53:26.119Z,73.60
2023-12-28T05:55:27.703Z,55.78
2023-12-28T05:57:48.560Z,68.70
2023-12-28T05:59:50.165Z,74.93
2023-12-28T06:02:10.460Z,59.00
2023-12-28T06:04:12.605Z,50.95
2023-12-28T06:06:14.458Z,63.30
2023-12-28T06:08:16.012Z,53.22
2023-12-28T06:10:17.657Z,53.67
2023-12-28T06:12:19.273Z,50.97
2023-12-28T06:14:20.815Z,60.40
2023-12-28T06:16:22.661Z,73.85
2023-12-28T06:18:24.278Z,49.35
2023-12-28T06:20:26.112Z,68.25
2023-12-28T06:22:28.677Z,64.47
2023-12-28T06:24:30.228Z,72.20
2023-12-28T06:26:31.769Z,55.92
2023-12-28T06:28:33.442Z,45.58
2023-12-28T06:30:35.079Z,48.45
2023-12-28T06:32:54.999Z,52.47
2023-12-28T06:34:57.419Z,59.05
2023-12-28T06:36:59.093Z,61.35
2023-12-28T06:39:00.960Z,61.70
2023-12-28T06:41:02.502Z,51.63
2023-12-28T06:43:04.177Z,58.65
2023-12-28T06:45:06.030Z,66.45
2023-12-28T06:47:07.536Z,53.88
2023-12-28T06:49:11.604Z,52.70
2023-12-28T06:51:20.645Z,66.63
2023-12-28T06:53:22.276Z,59.53
2023-12-28T06:55:23.843Z,65.97
2023-12-28T06:57:25.385Z,61.95
2023-12-28T06:59:26.967Z,64.93
2023-12-28T07:01:28.583Z,68.03
2023-12-28T07:03:33.590Z,56.10
2023-12-28T07:05:54.016Z,59.28
2023-12-28T07:08:13.947Z,54.00
2023-12-28T07:10:15.517Z,56.47
2023-12-28T07:12:17.107Z,52.00
2023-12-28T07:14:18.645Z,56.25
2023-12-28T07:16:20.397Z,49.33
2023-12-28T07:18:22.024Z,52.03
2023-12-28T07:20:42.209Z,63.83
2023-12-28T07:23:02.787Z,60.35
2023-12-28T07:25:06.050Z,57.75
2023-12-28T07:27:25.947Z,60.70
2023-12-28T07:29:28.070Z,56.80
2023-12-28T07:31:48.346Z,56.42
2023-12-28T07:33:51.024Z,56.00
2023-12-28T07:35:59.720Z,55.55
2023-12-28T07:38:11.627Z,58.28
2023-12-28T07:40:24.772Z,53.92
2023-12-28T07:42:33.632Z,59.08
2023-12-28T07:44:46.240Z,57.30
2023-12-28T07:47:18.814Z,62.60
2023-12-28T07:49:33.934Z,55.70
2023-12-28T07:51:45.555Z,57.25
2023-12-28T07:53:57.183Z,62.88
2023-12-28T07:56:25.214Z,56.63
2023-12-28T07:58:34.978Z,41.38
2023-12-28T08:00:48.113Z,56.50
2023-12-28T08:02:58.446Z,54.90
2023-12-28T08:05:07.975Z,54.10
2023-12-28T08:07:19.019Z,55.22
2023-12-28T08:09:31.248Z,56.60
2023-12-28T08:11:44.904Z,62.45
2023-12-28T08:13:56.063Z,40.83
2023-12-28T08:16:08.814Z,46.95
2023-12-28T08:18:13.096Z,46.92
2023-12-28T08:20:14.821Z,37.97
2023-12-28T08:22:16.571Z,46.45
2023-12-28T08:24:18.267Z,57.33
2023-12-28T08:26:19.990Z,51.83
2023-12-28T08:28:21.594Z,46.47
2023-12-28T08:30:23.623Z,46.10
2023-12-28T08:32:25.287Z,47.03
2023-12-28T08:34:46.376Z,59.28
2023-12-28T08:36:48.018Z,48.85
2023-12-28T08:38:49.819Z,40.95
2023-12-28T08:40:52.177Z,52.53
2023-12-28T08:43:13.736Z,57.90
2023-12-28T08:45:15.413Z,48.13
2023-12-28T08:47:17.125Z,39.78
2023-12-28T08:49:18.910Z,50.97
2023-12-28T08:51:29.657Z,45.75
2023-12-28T08:53:49.570Z,41.40
2023-12-28T08:56:20.152Z,52.28
2023-12-28T08:58:21.813Z,52.15
2023-12-28T09:00:23.448Z,42.95
2023-12-28T09:02:25.003Z,45.17
2023-12-28T09:04:26.639Z,42.95
2023-12-28T09:06:28.537Z,38.88
2023-12-28T09:08:51.575Z,42.33
2023-12-28T09:10:53.109Z,45.92
2023-12-28T09:13:15.946Z,38.75
2023-12-28T09:15:17.561Z,45.65
2023-12-28T09:17:22.015Z,41.85
2023-12-28T09:19:24.124Z,51.88
2023-12-28T09:21:27.554Z,60.17
2023-12-28T09:23:29.273Z,48.47
2023-12-28T09:25:30.790Z,44.90
2023-12-28T09:27:32.379Z,44.22
2023-12-28T09:29:35.256Z,63.65
2023-12-28T09:31:36.946Z,56.08
2023-12-28T09:33:38.775Z,58.45
2023-12-28T09:35:40.461Z,49.55
2023-12-28T09:37:42.070Z,57.35
2023-12-28T09:39:44.002Z,44.05
2023-12-28T09:41:48.056Z,55.42
2023-12-28T09:44:14.637Z,55.42
2023-12-28T09:46:16.464Z,50.55
2023-12-28T09:48:38.257Z,46.35
2023-12-28T09:50:40.113Z,51.40
2023-12-28T09:53:00.617Z,42.47
2023-12-28T09:55:20.435Z,50.35
2023-12-28T09:57:24.861Z,49.42
2023-12-28T09:59:28.033Z,40.83
2023-12-28T10:01:48.254Z,45.28
2023-12-28T10:03:49.980Z,46.33
2023-12-28T10:06:10.904Z,47.30
2023-12-28T10:08:13.921Z,47.40
2023-12-28T10:10:33.926Z,47.58
2023-12-28T10:12:35.583Z,44.47
2023-12-28T10:14:37.131Z,45.10
2023-12-28T10:16:41.270Z,59.60
2023-12-28T10:20:49.461Z,39.13
2023-12-28T10:22:52.371Z,41.47
2023-12-28T10:24:53.975Z,35.85
2023-12-28T10:26:55.781Z,50.85
2023-12-28T10:29:01.454Z,38.28
2023-12-28T10:31:03.158Z,45.45
2023-12-28T10:33:08.438Z,40.08
2023-12-28T10:35:10.702Z,45.50
2023-12-28T10:37:23.568Z,40.05
2023-12-28T10:39:29.364Z,49.88
2023-12-28T10:41:42.552Z,47.05
2023-12-28T10:43:58.617Z,44.40
2023-12-28T10:46:10.806Z,47.10
2023-12-28T10:48:27.387Z,49.85
2023-12-28T10:50:53.758Z,37.03
2023-12-28T10:53:13.609Z,53.25
2023-12-28T10:55:33.396Z,55.50
2023-12-28T10:58:02.901Z,49.58
2023-12-28T11:00:31.632Z,57.50
2023-12-28T11:02:43.139Z,39.97
2023-12-28T11:04:52.199Z,41.47
2023-12-28T11:06:58.474Z,43.72
2023-12-28T11:09:10.440Z,45.42
2023-12-28T11:11:21.203Z,43.47
2023-12-28T11:13:32.986Z,51.65
2023-12-28T11:15:45.110Z,53.70
2023-12-28T11:17:56.148Z,46.70
2023-12-28T11:20:10.852Z,28.63
2023-12-28T11:22:23.720Z,44.38
2023-12-28T11:24:35.836Z,40.20
2023-12-28T11:26:39.742Z,35.17
2023-12-28T11:28:41.294Z,42.70
2023-12-28T11:30:43.259Z,44.55
2023-12-28T11:32:45.541Z,45.13
2023-12-28T11:34:57.522Z,46.72
2023-12-28T11:37:20.172Z,40.38
2023-12-28T11:39:30.087Z,54.10
2023-12-28T11:41:32.566Z,32.00
2023-12-28T11:43:35.823Z,37.50
2023-12-28T11:45:37.421Z,23.98
2023-12-28T11:47:39.094Z,26.73
2023-12-28T11:49:45.006Z,35.95
2023-12-28T11:51:55.047Z,30.98
2023-12-28T11:53:57.566Z,34.17
2023-12-28T11:56:06.308Z,37.22
2023-12-28T11:58:07.983Z,28.88
2023-12-28T12:00:10.123Z,26.80
2023-12-28T12:02:12.591Z,29.95
2023-12-28T12:04:14.304Z,34.55
2023-12-28T12:06:16.073Z,36.90
2023-12-28T12:08:17.752Z,41.63
2023-12-28T12:10:19.382Z,33.60
2023-12-28T12:12:20.968Z,33.40
2023-12-28T12:14:22.674Z,47.85
2023-12-28T12:16:24.405Z,38.30
2023-12-28T12:18:26.712Z,34.50
2023-12-28T12:20:30.357Z,40.10
2023-12-28T12:22:32.884Z,48.55
2023-12-28T12:24:34.809Z,30.13
2023-12-28T12:26:37.441Z,31.60
2023-12-28T12:28:40.043Z,33.83
2023-12-28T12:30:50.280Z,30.65
2023-12-28T12:32:52.068Z,31.58
2023-12-28T12:34:54.125Z,28.90
2023-12-28T12:36:56.416Z,28.52
2023-12-28T12:38:58.051Z,41.00
2023-12-28T12:40:59.835Z,32.17
2023-12-28T12:43:02.264Z,39.00
2023-12-28T12:45:05.568Z,32.22
2023-12-28T12:47:08.457Z,39.60
2023-12-28T12:49:28.516Z,34.70
2023-12-28T12:51:30.163Z,31.10
2023-12-28T12:53:38.399Z,33.38
2023-12-28T12:55:58.571Z,31.85
2023-12-28T12:58:18.905Z,33.15
2023-12-28T13:00:20.899Z,38.35
2023-12-28T13:02:26.167Z,26.17
2023-12-28T13:04:28.043Z,33.53
2023-12-28T13:06:29.808Z,24.58
2023-12-28T13:08:31.410Z,32.92
2023-12-28T13:10:32.976Z,32.53
2023-12-28T13:12:34.563Z,31.27
2023-12-28T13:14:36.188Z,28.25
2023-12-28T13:16:37.773Z,37.00
2023-12-28T13:18:39.473Z,33.78
2023-12-28T13:20:41.196Z,28.85
2023-12-28T13:22:42.858Z,32.47
2023-12-28T13:24:44.586Z,27.20
2023-12-28T13:27:05.369Z,35.13
2023-12-28T13:29:06.986Z,24.00
2023-12-28T13:31:08.761Z,32.55
2023-12-28T13:33:10.751Z,25.10
2023-12-28T13:35:12.299Z,22.88
2023-12-28T13:37:13.862Z,36.75
2023-12-28T13:39:15.906Z,21.95
2023-12-28T13:41:18.983Z,30.35
2023-12-28T13:43:23.548Z,26.98
2023-12-28T13:45:26.882Z,31.20
2023-12-28T13:47:31.355Z,39.40
2023-12-28T13:49:44.703Z,20.67
2023-12-28T13:52:00.044Z,36.15
2023-12-28T13:54:06.919Z,25.17
2023-12-28T13:56:18.896Z,31.15
2023-12-28T13:58:32.389Z,36.80
2023-12-28T14:00:45.763Z,40.28
2023-12-28T14:03:13.743Z,28.20
2023-12-28T14:05:27.180Z,27.23
2023-12-28T14:07:37.083Z,32.53
2023-12-28T14:09:59.478Z,35.03
2023-12-28T14:12:13.719Z,31.17
2023-12-28T14:14:45.424Z,21.90
2023-12-28T14:16:50.290Z,31.88
2023-12-28T14:18:54.956Z,32.22
2023-12-28T14:21:05.118Z,44.60
2023-12-28T14:23:28.889Z,38.05
2023-12-28T14:25:40.406Z,35.92
2023-12-28T14:27:47.565Z,24.98
2023-12-28T14:29:53.110Z,35.03
2023-12-28T14:31:55.277Z,26.27
2023-12-28T14:33:57.103Z,31.17
2023-12-28T14:35:59.090Z,37.20
2023-12-28T14:38:01.049Z,35.90
2023-12-28T14:40:07.541Z,32.83
2023-12-28T14:42:09.474Z,34.85
2023-12-28T14:44:11.060Z,30.45
2023-12-28T14:46:12.693Z,42.67
2023-12-28T14:48:14.622Z,32.47
2023-12-28T14:50:16.473Z,33.28
2023-12-28T14:52:18.650Z,33.83
2023-12-28T14:54:20.291Z,27.77
2023-12-28T14:56:22.014Z,34.78
2023-12-28T14:58:23.633Z,34.25
2023-12-28T15:00:25.680Z,33.95
2023-12-28T15:02:27.257Z,40.00
2023-12-28T15:04:28.861Z,25.83
2023-12-28T15:06:30.452Z,28.98
2023-12-28T15:08:31.944Z,31.73
2023-12-28T15:10:52.144Z,33.63
2023-12-28T15:12:53.807Z,24.48
2023-12-28T15:14:55.470Z,38.95
2023-12-28T15:16:57.095Z,28.42
2023-12-28T15:18:58.788Z,28.80
2023-12-28T15:21:00.539Z,41.25
2023-12-28T15:23:02.273Z,30.05
2023-12-28T15:25:05.099Z,33.33
2023-12-28T15:27:08.382Z,38.40
2023-12-28T15:29:10.115Z,29.60
2023-12-28T15:31:11.802Z,38.20
2023-12-28T15:33:13.515Z,33.00
2023-12-28T15:35:18.479Z,36.63
2023-12-28T15:37:38.718Z,40.40
2023-12-28T15:39:59.016Z,36.65
2023-12-28T15:42:00.626Z,35.25
2023-12-28T15:44:02.085Z,37.83
2023-12-28T15:46:04.086Z,52.55
2023-12-28T15:48:06.100Z,35.65
2023-12-28T15:50:08.006Z,35.15
2023-12-28T15:52:28.580Z,27.75
2023-12-28T15:54:30.197Z,39.80
2023-12-28T15:56:31.759Z,36.53
2023-12-28T15:58:33.276Z,27.40
2023-12-28T16:00:34.857Z,37.95
2023-12-28T16:02:36.753Z,38.72
2023-12-28T16:04:38.611Z,32.10
2023-12-28T16:06:40.218Z,29.13
2023-12-28T16:08:41.812Z,38.30
2023-12-28T16:10:43.386Z,34.03
2023-12-28T16:13:03.616Z,45.80
2023-12-28T16:15:24.367Z,47.88
2023-12-28T16:17:26.392Z,40.92
2023-12-28T16:19:28.263Z,49.90
2023-12-28T16:21:48.804Z,34.63
2023-12-28T16:23:50.517Z,43.08
2023-12-28T16:25:52.030Z,39.15
2023-12-28T16:27:53.651Z,27.70
2023-12-28T16:30:13.976Z,38.53
2023-12-28T16:32:15.761Z,39.10
2023-12-28T16:34:18.007Z,53.13
2023-12-28T16:36:19.830Z,51.72
2023-12-28T16:38:21.324Z,35.63
2023-12-28T16:40:22.923Z,43.75
2023-12-28T16:42:24.466Z,41.17
2023-12-28T16:44:25.960Z,43.22
2023-12-28T16:46:27.516Z,51.20
2023-12-28T16:48:47.706Z,28.13
2023-12-28T16:50:51.195Z,45.47
2023-12-28T16:52:58.210Z,44.83
2023-12-28T16:55:10.687Z,44.28
2023-12-28T16:57:22.036Z,48.50
2023-12-28T16:59:31.659Z,57.00
2023-12-28T17:01:37.366Z,39.60
2023-12-28T17:03:46.094Z,46.00
2023-12-28T17:05:52.337Z,31.80
2023-12-28T17:07:55.971Z,29.88
2023-12-28T17:10:20.345Z,22.38
2023-12-28T17:12:40.107Z,19.00
2023-12-28T17:14:44.497Z,25.98
2023-12-28T17:17:09.574Z,19.23
2023-12-28T17:19:12.815Z,27.42
2023-12-28T17:21:19.635Z,19.35
2023-12-28T17:23:41.342Z,17.92
2023-12-28T17:25:48.811Z,17.17
2023-12-28T17:28:22.464Z,19.27
2023-12-28T17:30:26.459Z,15.55
2023-12-28T17:32:34.552Z,18.83
2023-12-28T17:34:42.628Z,23.60
2023-12-28T17:36:45.832Z,15.65
2023-12-28T17:38:49.717Z,20.67
2023-12-28T17:40:51.630Z,16.67
2023-12-28T17:42:53.731Z,17.60
2023-12-28T17:44:58.505Z,17.40
2023-12-28T17:47:05.428Z,13.38
2023-12-28T17:49:09.784Z,13.30
2023-12-28T17:51:13.016Z,18.90
2023-12-28T17:53:14.704Z,12.93
2023-12-28T17:55:16.322Z,13.95
2023-12-28T17:57:17.987Z,27.85
2023-12-28T17:59:19.472Z,21.17
2023-12-28T18:01:21.506Z,25.75
2023-12-28T18:03:41.804Z,25.40
2023-12-28T18:05:43.703Z,22.67
2023-12-28T18:07:45.240Z,19.95
2023-12-28T18:09:46.981Z,25.50
2023-12-28T18:11:48.802Z,28.08
2023-12-28T18:13:50.508Z,29.05
2023-12-28T18:15:52.001Z,35.10
2023-12-28T18:17:53.639Z,41.03
2023-12-28T18:19:55.277Z,41.55
2023-12-28T18:21:56.936Z,43.35
2023-12-28T18:24:17.367Z,45.67
2023-12-28T18:26:18.827Z,54.97
2023-12-28T18:28:20.458Z,54.83
2023-12-28T18:30:22.049Z,62.20
2023-12-28T18:32:23.660Z,42.53
2023-12-28T18:34:25.376Z,42.65
2023-12-28T18:36:26.942Z,38.72
2023-12-28T18:38:28.436Z,35.92
2023-12-28T18:40:29.948Z,47.25
2023-12-28T18:42:31.516Z,39.20
2023-12-28T18:44:35.349Z,49.53
2023-12-28T18:46:36.858Z,29.88
2023-12-28T18:48:38.669Z,36.67
2023-12-28T18:50:40.715Z,38.00
2023-12-28T18:52:42.480Z,34.80
2023-12-28T18:54:44.784Z,36.78
2023-12-28T18:56:46.273Z,31.08
2023-12-28T18:58:47.795Z,45.85
2023-12-28T19:00:49.454Z,44.47
2023-12-28T19:02:50.985Z,39.88
2023-12-28T19:04:52.607Z,32.47
2023-12-28T19:07:12.821Z,47.75
2023-12-28T19:09:33.304Z,46.67
2023-12-28T19:11:34.908Z,40.22
2023-12-28T19:13:36.422Z,53.33
2023-12-28T19:15:38.203Z,47.08
2023-12-28T19:17:42.398Z,57.28
2023-12-28T19:19:44.143Z,46.08
2023-12-28T19:21:45.642Z,54.80
2023-12-28T19:23:47.305Z,50.70
2023-12-28T19:25:48.851Z,43.28
2023-12-28T19:28:09.242Z,58.15
2023-12-28T19:30:11.286Z,52.15
2023-12-28T19:32:13.199Z,37.30
2023-12-28T19:34:14.964Z,40.90
2023-12-28T19:36:16.818Z,44.63
2023-12-28T19:38:18.327Z,41.75
2023-12-28T19:40:38.442Z,46.75
2023-12-28T19:42:40.137Z,54.00
2023-12-28T19:44:41.695Z,38.20
2023-12-28T19:46:43.479Z,43.83
2023-12-28T19:48:45.213Z,38.05
2023-12-28T19:50:46.965Z,40.42
2023-12-28T19:52:48.469Z,50.63
2023-12-28T19:54:50.162Z,34.97
2023-12-28T19:56:51.751Z,24.08
2023-12-28T19:58:53.348Z,26.98
2023-12-28T20:00:56.106Z,30.70
2023-12-28T20:03:22.559Z,26.13
2023-12-28T20:05:32.022Z,37.90
2023-12-28T20:07:42.990Z,27.30
2023-12-28T20:09:52.245Z,32.05
2023-12-28T20:11:56.751Z,37.50
2023-12-28T20:14:00.621Z,46.35
2023-12-28T20:16:06.924Z,44.90
2023-12-28T20:18:28.333Z,33.88
2023-12-28T20:20:30.946Z,43.05
2023-12-28T20:22:36.507Z,36.80
2023-12-28T20:24:42.994Z,46.38
2023-12-28T20:26:48.929Z,41.15
2023-12-28T20:28:53.302Z,32.10
2023-12-28T20:30:58.361Z,43.35
2023-12-28T20:33:03.607Z,44.17
2023-12-28T20:35:09.628Z,38.42
2023-12-28T20:37:35.947Z,29.80
2023-12-28T20:39:40.578Z,40.20
2023-12-28T20:41:46.649Z,38.58
2023-12-28T20:43:53.868Z,38.78
2023-12-28T20:45:56.148Z,33.25
2023-12-28T20:47:58.054Z,28.52
2023-12-28T20:49:59.813Z,34.45
2023-12-28T20:52:01.987Z,21.90
2023-12-28T20:54:03.831Z,25.55
2023-12-28T20:56:06.076Z,29.08
2023-12-28T20:58:07.712Z,27.83
2023-12-28T21:00:09.631Z,31.55
2023-12-28T21:02:11.144Z,33.72
2023-12-28T21:04:31.666Z,36.25
2023-12-28T21:06:33.235Z,32.60
2023-12-28T21:08:53.102Z,30.45
2023-12-28T21:10:56.664Z,27.42
2023-12-28T21:13:04.783Z,40.72
2023-12-28T21:15:07.049Z,20.30
2023-12-28T21:17:08.740Z,26.33
2023-12-28T21:19:11.104Z,26.73
2023-12-28T21:21:13.053Z,29.70
2023-12-28T21:23:15.332Z,25.92
2023-12-28T21:25:16.889Z,23.30
2023-12-28T21:27:18.504Z,30.60
2023-12-28T21:29:39.963Z,27.35
2023-12-28T21:31:41.738Z,22.10
2023-12-28T21:33:43.988Z,20.58
2023-12-28T21:35:45.660Z,22.50
2023-12-28T21:37:47.157Z,19.65
2023-12-28T21:39:48.695Z,32.05
2023-12-28T21:41:50.231Z,25.95
2023-12-28T21:43:51.803Z,24.27
2023-12-28T21:45:53.341Z,30.40
2023-12-28T21:48:13.409Z,27.95
2023-12-28T21:50:15.071Z,33.90
2023-12-28T21:52:16.577Z,25.70
2023-12-28T21:54:18.199Z,34.33
2023-12-28T21:56:19.846Z,37.33
2023-12-28T21:58:22.562Z,21.83
2023-12-28T22:00:24.364Z,34.80
2023-12-28T22:02:25.882Z,42.92
2023-12-28T22:04:27.464Z,33.72
2023-12-28T22:06:29.021Z,31.48
2023-12-28T22:08:30.634Z,25.98
2023-12-28T22:10:32.239Z,38.17
2023-12-28T22:12:33.777Z,29.52
2023-12-28T22:14:35.296Z,31.02
2023-12-28T22:16:37.038Z,31.38
2023-12-28T22:18:38.755Z,34.22
2023-12-28T22:20:40.423Z,33.08
2023-12-28T22:22:42.039Z,28.88
2023-12-28T22:24:43.568Z,31.05
2023-12-28T22:26:46.591Z,32.85
2023-12-28T22:28:48.137Z,17.70
2023-12-28T22:30:49.721Z,25.85
2023-12-28T22:32:51.592Z,25.75
2023-12-28T22:34:53.384Z,37.53
2023-12-28T22:37:13.739Z,40.22
2023-12-28T22:39:16.638Z,30.13
2023-12-28T22:41:18.261Z,32.85
2023-12-28T22:43:19.868Z,27.48
2023-12-28T22:45:21.608Z,29.63
2023-12-28T22:47:26.549Z,29.60
2023-12-28T22:49:47.065Z,31.27
2023-12-28T22:51:49.741Z,22.33
2023-12-28T22:53:51.334Z,26.85
2023-12-28T22:55:52.850Z,32.42
2023-12-28T22:58:12.938Z,30.00
2023-12-28T23:00:23.053Z,34.63
2023-12-28T23:02:24.539Z,36.17
2023-12-28T23:04:27.054Z,31.42
2023-12-28T23:06:28.598Z,31.20
2023-12-28T23:08:35.302Z,30.80
2023-12-28T23:10:47.643Z,47.88
2023-12-28T23:13:15.215Z,37.40
2023-12-28T23:15:40.618Z,31.23
2023-12-28T23:17:55.072Z,35.10
2023-12-28T23:20:24.682Z,32.50
2023-12-28T23:22:47.718Z,35.65
2023-12-28T23:25:09.894Z,26.98
2023-12-28T23:27:27.083Z,30.05
2023-12-28T23:29:41.407Z,35.78
2023-12-28T23:32:15.204Z,38.13
2023-12-28T23:34:25.873Z,24.90
2023-12-28T23:36:35.907Z,33.67
2023-12-28T23:38:57.584Z,33.05
2023-12-28T23:41:10.849Z,30.25
2023-12-28T23:43:17.160Z,24.67
2023-12-28T23:45:21.567Z,29.63
2023-12-28T23:47:55.804Z,31.58
2023-12-28T23:50:03.233Z,28.75
2023-12-28T23:52:05.129Z,21.05
2023-12-28T23:54:06.664Z,25.55
2023-12-28T23:56:08.394Z,33.70
2023-12-28T23:58:10.067Z,29.63
